createdAt,value
2023-05-19T00:02:07.033Z,10.10
2023-05-19T00:04:34.040Z,10.10
2023-05-19T00:07:00.944Z,10.10
2023-05-19T00:09:27.978Z,10.00
2023-05-19T00:11:54.988Z,10.10
2023-05-19T00:14:21.800Z,10.00
2023-05-19T00:16:48.682Z,10.00
2023-05-19T00:19:15.361Z,10.00
2023-05-19T00:21:42.005Z,10.00
2023-05-19T00:24:08.650Z,9.90
2023-05-19T00:26:35.289Z,9.90
2023-05-19T00:29:01.922Z,9.90
2023-05-19T00:31:28.586Z,9.90
2023-05-19T00:33:55.246Z,10.00
2023-05-19T00:36:21.882Z,9.90
2023-05-19T00:38:48.548Z,9.90
2023-05-19T00:41:15.156Z,9.90
2023-05-19T00:43:41.824Z,9.90
2023-05-19T00:46:08.606Z,9.90
2023-05-19T00:48:35.242Z,9.90
2023-05-19T00:51:04.922Z,9.80
2023-05-19T00:53:35.356Z,9.80
2023-05-19T00:56:03.428Z,9.80
2023-05-19T00:58:31.327Z,9.80
2023-05-19T01:00:59.055Z,9.80
2023-05-19T01:03:25.738Z,9.70
2023-05-19T01:05:52.395Z,9.70
2023-05-19T01:08:19.606Z,9.70
2023-05-19T01:10:47.351Z,9.60
2023-05-19T01:13:14.296Z,9.60
2023-05-19T01:16:04.749Z,9.50
2023-05-19T01:18:47.301Z,9.50
2023-05-19T01:21:23.012Z,9.40
2023-05-19T01:24:04.773Z,9.40
2023-05-19T01:27:07.942Z,9.40
2023-05-19T01:29:53.277Z,9.40
2023-05-19T01:32:23.724Z,9.40
2023-05-19T01:34:51.101Z,9.30
2023-05-19T01:37:17.975Z,9.30
2023-05-19T01:39:45.138Z,9.30
2023-05-19T01:42:14.239Z,9.30
2023-05-19T01:44:41.673Z,9.30
2023-05-19T01:47:09.413Z,9.20
2023-05-19T01:49:36.124Z,9.30
2023-05-19T01:52:02.822Z,9.30
2023-05-19T01:54:29.454Z,9.20
2023-05-19T01:57:34.860Z,9.20
2023-05-19T02:00:30.447Z,9.20
2023-05-19T02:03:09.169Z,9.10
2023-05-19T02:05:59.927Z,9.10
2023-05-19T02:08:29.319Z,9.10
2023-05-19T02:11:02.650Z,9.10
2023-05-19T02:13:33.617Z,9.20
2023-05-19T02:16:05.034Z,9.20
2023-05-19T02:18:33.447Z,9.20
2023-05-19T02:21:00.159Z,9.20
2023-05-19T02:23:27.058Z,9.10
2023-05-19T02:25:53.761Z,9.10
2023-05-19T02:28:20.358Z,9.10
2023-05-19T02:30:46.963Z,9.10
2023-05-19T02:33:13.619Z,9.10
2023-05-19T02:35:40.264Z,9.10
2023-05-19T02:38:06.877Z,9.10
2023-05-19T02:40:33.708Z,9.10
2023-05-19T02:43:00.546Z,9.10
2023-05-19T02:45:27.152Z,9.10
2023-05-19T02:47:53.785Z,9.10
2023-05-19T02:50:20.429Z,9.20
2023-05-19T02:52:47.089Z,9.20
2023-05-19T02:55:13.803Z,9.10
2023-05-19T02:57:40.396Z,9.10
2023-05-19T03:00:07.787Z,9.20
2023-05-19T03:02:34.529Z,9.20
2023-05-19T03:05:01.272Z,9.20
2023-05-19T03:07:27.892Z,9.20
2023-05-19T03:09:54.862Z,9.20
2023-05-19T03:12:21.491Z,9.20
2023-05-19T03:14:48.092Z,9.20
2023-05-19T03:17:14.718Z,9.20
2023-05-19T03:19:41.398Z,9.30
2023-05-19T03:22:08.042Z,9.30
2023-05-19T03:24:34.671Z,9.20
2023-05-19T03:27:01.286Z,9.20
2023-05-19T03:29:27.912Z,9.20
2023-05-19T03:31:54.508Z,9.20
2023-05-19T03:34:21.097Z,9.20
2023-05-19T03:36:47.758Z,9.30
2023-05-19T03:39:14.352Z,9.30
2023-05-19T03:41:40.949Z,9.30
2023-05-19T03:44:07.551Z,9.30
2023-05-19T03:46:34.177Z,9.40
2023-05-19T03:49:00.764Z,9.30
2023-05-19T03:51:27.422Z,9.30
2023-05-19T03:53:54.284Z,9.30
2023-05-19T03:56:20.891Z,9.30
2023-05-19T03:58:47.484Z,9.30
2023-05-19T04:01:14.138Z,9.30
2023-05-19T04:03:40.833Z,9.30
2023-05-19T04:06:08.066Z,9.30
2023-05-19T04:08:34.689Z,9.30
2023-05-19T04:11:01.330Z,9.30
2023-05-19T04:13:27.993Z,9.30
2023-05-19T04:15:54.629Z,9.30
2023-05-19T04:18:21.224Z,9.40
2023-05-19T04:20:47.814Z,9.40
2023-05-19T04:23:14.402Z,9.40
2023-05-19T04:25:41.239Z,9.50
2023-05-19T04:28:08.029Z,9.50
2023-05-19T04:30:34.913Z,9.50
2023-05-19T04:33:01.645Z,9.50
2023-05-19T04:35:28.293Z,9.50
2023-05-19T04:37:54.905Z,9.40
2023-05-19T04:40:21.502Z,9.40
2023-05-19T04:42:48.118Z,9.40
2023-05-19T04:45:14.749Z,9.40
2023-05-19T04:47:41.716Z,9.50
2023-05-19T04:50:08.745Z,9.50
2023-05-19T04:52:35.355Z,9.50
2023-05-19T04:55:01.970Z,9.60
2023-05-19T04:57:28.563Z,9.70
2023-05-19T04:59:55.194Z,9.60
2023-05-19T05:02:21.905Z,9.60
2023-05-19T05:04:48.657Z,9.60
2023-05-19T05:07:15.237Z,9.70
2023-05-19T05:09:41.961Z,9.70
2023-05-19T05:12:09.238Z,9.70
2023-05-19T05:14:36.134Z,9.80
2023-05-19T05:17:03.023Z,9.80
2023-05-19T05:19:29.988Z,9.80
2023-05-19T05:21:56.836Z,9.80
2023-05-19T05:24:23.818Z,9.90
2023-05-19T05:26:50.765Z,9.90
2023-05-19T05:29:17.400Z,9.90
2023-05-19T05:31:44.027Z,9.90
2023-05-19T05:34:10.891Z,9.90
2023-05-19T05:36:37.474Z,10.00
2023-05-19T05:39:04.136Z,10.00
2023-05-19T05:41:31.167Z,10.10
2023-05-19T05:43:57.764Z,10.20
2023-05-19T05:46:24.433Z,10.30
2023-05-19T05:48:51.451Z,10.20
2023-05-19T05:51:20.955Z,10.30
2023-05-19T05:53:53.403Z,10.30
2023-05-19T05:56:20.449Z,10.40
2023-05-19T05:58:47.127Z,10.50
2023-05-19T06:01:14.098Z,10.50
2023-05-19T06:03:42.226Z,10.60
2023-05-19T06:06:08.885Z,10.70
2023-05-19T06:08:35.542Z,10.80
2023-05-19T06:11:02.158Z,10.80
2023-05-19T06:13:28.773Z,10.90
2023-05-19T06:15:55.454Z,10.80
2023-05-19T06:18:22.080Z,10.90
2023-05-19T06:20:48.768Z,11.00
2023-05-19T06:23:15.430Z,11.00
2023-05-19T06:25:42.036Z,11.00
2023-05-19T06:28:08.619Z,11.10
2023-05-19T06:30:35.424Z,11.30
2023-05-19T06:33:02.486Z,11.40
2023-05-19T06:35:29.927Z,11.40
2023-05-19T06:37:56.652Z,11.40
2023-05-19T06:40:23.593Z,11.40
2023-05-19T06:42:50.187Z,11.40
2023-05-19T06:45:17.109Z,11.40
2023-05-19T06:47:43.776Z,11.60
2023-05-19T06:50:10.806Z,11.60
2023-05-19T06:52:37.759Z,11.70
2023-05-19T06:55:05.032Z,11.70
2023-05-19T06:57:31.669Z,11.70
2023-05-19T07:00:00.354Z,11.80
2023-05-19T07:02:27.304Z,11.90
2023-05-19T07:04:53.973Z,11.90
2023-05-19T07:07:20.624Z,12.10
2023-05-19T07:09:47.230Z,12.10
2023-05-19T07:12:13.824Z,12.10
2023-05-19T07:14:40.446Z,12.10
2023-05-19T07:17:09.738Z,12.10
2023-05-19T07:19:36.345Z,12.00
2023-05-19T07:22:03.012Z,11.90
2023-05-19T07:24:29.618Z,11.90
2023-05-19T07:26:56.307Z,11.90
2023-05-19T07:29:22.945Z,11.90
2023-05-19T07:31:49.664Z,12.00
2023-05-19T07:34:16.293Z,12.10
2023-05-19T07:36:42.884Z,12.20
2023-05-19T07:39:09.589Z,12.20
2023-05-19T07:41:36.534Z,12.20
2023-05-19T07:44:03.284Z,12.20
2023-05-19T07:46:29.957Z,12.10
2023-05-19T07:48:56.661Z,12.00
2023-05-19T07:51:23.289Z,12.00
2023-05-19T07:53:49.969Z,12.00
2023-05-19T07:56:16.667Z,12.10
2023-05-19T07:58:43.308Z,12.20
2023-05-19T08:01:09.907Z,12.30
2023-05-19T08:03:36.631Z,12.20
2023-05-19T08:06:03.503Z,12.30
2023-05-19T08:08:30.098Z,12.20
2023-05-19T08:10:56.746Z,12.10
2023-05-19T08:13:23.372Z,12.00
2023-05-19T08:15:50.012Z,12.00
2023-05-19T08:18:16.655Z,12.00
2023-05-19T08:20:43.338Z,12.00
2023-05-19T08:23:09.914Z,11.80
2023-05-19T08:25:36.497Z,11.90
2023-05-19T08:28:03.267Z,11.90
2023-05-19T08:30:29.925Z,11.90
2023-05-19T08:32:56.587Z,11.90
2023-05-19T08:35:23.391Z,11.80
2023-05-19T08:37:50.007Z,11.90
2023-05-19T08:40:17.459Z,11.80
2023-05-19T08:42:47.743Z,11.90
2023-05-19T08:45:14.579Z,11.90
2023-05-19T08:47:46.185Z,11.90
2023-05-19T08:50:17.728Z,11.90
2023-05-19T08:53:01.412Z,11.90
2023-05-19T08:55:36.609Z,11.90
2023-05-19T08:58:04.425Z,11.90
2023-05-19T09:00:31.935Z,11.90
2023-05-19T09:03:10.731Z,11.90
2023-05-19T09:05:44.909Z,11.80
2023-05-19T09:08:11.675Z,11.90
2023-05-19T09:10:38.326Z,11.90
2023-05-19T09:13:05.907Z,11.90
2023-05-19T09:15:33.082Z,12.00
2023-05-19T09:18:08.184Z,12.00
2023-05-19T09:20:40.390Z,12.00
2023-05-19T09:23:07.234Z,12.10
2023-05-19T09:25:34.356Z,12.10
2023-05-19T09:28:01.232Z,12.20
2023-05-19T09:30:27.826Z,12.30
2023-05-19T09:32:54.503Z,12.30
2023-05-19T09:35:21.081Z,12.40
2023-05-19T09:37:47.666Z,12.50
2023-05-19T09:40:15.391Z,12.60
2023-05-19T09:42:42.254Z,12.60
2023-05-19T09:45:09.208Z,12.60
2023-05-19T09:47:36.424Z,12.70
2023-05-19T09:50:05.319Z,12.70
2023-05-19T09:52:34.577Z,12.60
2023-05-19T09:55:01.837Z,12.50
2023-05-19T09:57:34.442Z,12.40
2023-05-19T10:00:02.362Z,12.50
2023-05-19T10:02:30.214Z,12.60
2023-05-19T10:04:56.979Z,12.60
2023-05-19T10:07:24.302Z,12.70
2023-05-19T10:09:52.934Z,12.70
2023-05-19T10:12:20.406Z,12.80
2023-05-19T10:14:48.640Z,12.70
2023-05-19T10:17:15.786Z,12.70
2023-05-19T10:19:44.041Z,12.60
2023-05-19T10:22:10.641Z,12.70
2023-05-19T10:24:37.295Z,12.60
2023-05-19T10:27:09.754Z,12.70
2023-05-19T10:29:40.886Z,12.60
2023-05-19T10:32:13.090Z,12.70
2023-05-19T10:34:59.651Z,12.70
2023-05-19T10:37:55.128Z,12.60
2023-05-19T10:40:32.607Z,12.50
2023-05-19T10:43:08.284Z,12.60
2023-05-19T10:45:51.018Z,12.70
2023-05-19T10:48:20.304Z,12.50
2023-05-19T10:50:47.214Z,12.60
2023-05-19T10:53:18.704Z,12.60
2023-05-19T10:55:55.358Z,12.60
2023-05-19T10:58:43.902Z,12.50
2023-05-19T11:01:18.718Z,12.50
2023-05-19T11:03:53.375Z,12.50
2023-05-19T11:06:32.660Z,12.70
2023-05-19T11:09:01.880Z,12.70
2023-05-19T11:11:44.151Z,12.80
2023-05-19T11:14:11.814Z,12.80
2023-05-19T11:16:40.341Z,12.80
2023-05-19T11:19:07.159Z,12.80
2023-05-19T11:21:49.198Z,12.80
2023-05-19T11:24:45.144Z,12.80
2023-05-19T11:27:34.463Z,12.90
2023-05-19T11:30:11.262Z,12.70
2023-05-19T11:32:37.892Z,12.70
2023-05-19T11:35:05.191Z,12.70
2023-05-19T11:37:32.809Z,12.60
2023-05-19T11:40:01.886Z,12.60
2023-05-19T11:42:28.539Z,12.60
2023-05-19T11:44:55.940Z,12.50
2023-05-19T11:47:22.660Z,12.60
2023-05-19T11:49:50.414Z,12.70
2023-05-19T11:52:17.305Z,12.60
2023-05-19T11:54:48.761Z,12.70
2023-05-19T11:57:15.536Z,12.80
2023-05-19T11:59:42.579Z,12.80
2023-05-19T12:02:22.275Z,12.70
2023-05-19T12:04:49.351Z,12.70
2023-05-19T12:07:17.191Z,12.70
2023-05-19T12:09:45.327Z,12.80
2023-05-19T12:12:19.827Z,12.90
2023-05-19T12:14:46.766Z,13.00
2023-05-19T12:17:14.854Z,12.90
2023-05-19T12:19:43.791Z,13.00
2023-05-19T12:22:10.975Z,13.00
2023-05-19T12:24:38.862Z,13.00
2023-05-19T12:27:19.669Z,13.00
2023-05-19T12:29:54.261Z,13.10
2023-05-19T12:32:25.340Z,13.20
2023-05-19T12:34:52.547Z,13.50
2023-05-19T12:37:19.269Z,13.60
2023-05-19T12:39:48.251Z,13.80
2023-05-19T12:42:16.478Z,13.80
2023-05-19T12:44:45.301Z,13.80
2023-05-19T12:47:12.400Z,13.90
2023-05-19T12:49:57.307Z,14.10
2023-05-19T12:52:23.855Z,14.00
2023-05-19T12:54:57.845Z,14.10
2023-05-19T12:57:26.165Z,14.10
2023-05-19T12:59:53.323Z,14.20
2023-05-19T13:02:20.017Z,14.20
2023-05-19T13:04:46.763Z,14.20
2023-05-19T13:07:13.452Z,14.30
2023-05-19T13:09:40.057Z,14.20
2023-05-19T13:12:06.838Z,14.40
2023-05-19T13:14:33.449Z,14.40
2023-05-19T13:17:00.117Z,14.30
2023-05-19T13:19:26.910Z,14.20
2023-05-19T13:21:53.532Z,14.20
2023-05-19T13:24:20.153Z,14.20
2023-05-19T13:26:46.783Z,14.10
2023-05-19T13:29:13.398Z,14.20
2023-05-19T13:31:40.080Z,14.40
2023-05-19T13:34:06.790Z,14.40
2023-05-19T13:36:33.515Z,14.40
2023-05-19T13:39:00.680Z,14.60
2023-05-19T13:41:27.615Z,14.80
2023-05-19T13:43:54.232Z,14.90
2023-05-19T13:46:26.590Z,15.10
2023-05-19T13:48:59.616Z,15.20
2023-05-19T13:51:26.391Z,15.20
2023-05-19T13:53:53.197Z,15.10
2023-05-19T13:56:19.839Z,15.00
2023-05-19T13:58:46.436Z,15.00
2023-05-19T14:01:13.091Z,14.90
2023-05-19T14:03:39.847Z,15.00
2023-05-19T14:06:06.497Z,15.00
2023-05-19T14:08:33.128Z,15.00
2023-05-19T14:10:59.922Z,14.90
2023-05-19T14:13:33.381Z,15.00
2023-05-19T14:16:02.250Z,14.90
2023-05-19T14:18:28.906Z,14.80
2023-05-19T14:20:55.508Z,14.80
2023-05-19T14:23:22.128Z,14.80
2023-05-19T14:25:48.903Z,14.80
2023-05-19T14:28:15.508Z,14.90
2023-05-19T14:30:42.694Z,15.10
2023-05-19T14:33:09.397Z,15.10
2023-05-19T14:35:36.123Z,15.20
2023-05-19T14:38:02.768Z,15.30
2023-05-19T14:40:29.427Z,15.30
2023-05-19T14:42:56.154Z,15.30
2023-05-19T14:45:22.800Z,15.30
2023-05-19T14:47:49.483Z,15.40
2023-05-19T14:50:16.236Z,15.50
2023-05-19T14:52:42.838Z,15.50
2023-05-19T14:55:10.628Z,15.40
2023-05-19T14:57:37.242Z,15.50
2023-05-19T15:00:04.406Z,15.50
2023-05-19T15:02:31.066Z,15.50
2023-05-19T15:04:57.663Z,15.50
2023-05-19T15:07:24.279Z,15.50
2023-05-19T15:09:50.879Z,15.60
2023-05-19T15:12:17.453Z,15.50
2023-05-19T15:14:44.091Z,15.50
2023-05-19T15:17:11.030Z,15.50
2023-05-19T15:19:37.912Z,15.40
2023-05-19T15:22:06.494Z,15.40
2023-05-19T15:24:33.135Z,15.40
2023-05-19T15:27:00.906Z,15.60
2023-05-19T15:29:27.869Z,15.50
2023-05-19T15:31:54.510Z,15.50
2023-05-19T15:34:21.151Z,15.50
2023-05-19T15:36:47.839Z,15.50
2023-05-19T15:39:14.447Z,15.40
2023-05-19T15:41:41.039Z,15.50
2023-05-19T15:44:07.707Z,15.60
2023-05-19T15:46:34.494Z,15.50
2023-05-19T15:49:01.183Z,15.50
2023-05-19T15:51:28.067Z,15.50
2023-05-19T15:53:54.658Z,15.40
2023-05-19T15:56:21.233Z,15.40
2023-05-19T15:58:47.980Z,15.40
2023-05-19T16:01:16.131Z,15.40
2023-05-19T16:03:42.965Z,15.50
2023-05-19T16:06:09.644Z,15.50
2023-05-19T16:08:36.253Z,15.60
2023-05-19T16:11:02.877Z,15.70
2023-05-19T16:13:29.793Z,15.70
2023-05-19T16:15:56.745Z,15.70
2023-05-19T16:18:23.360Z,15.70
2023-05-19T16:20:51.106Z,15.70
2023-05-19T16:23:17.722Z,15.60
2023-05-19T16:25:44.325Z,15.60
2023-05-19T16:28:10.960Z,15.60
2023-05-19T16:30:37.570Z,15.60
2023-05-19T16:33:04.245Z,15.50
2023-05-19T16:35:30.936Z,15.50
2023-05-19T16:37:57.962Z,15.50
2023-05-19T16:40:24.564Z,15.50
2023-05-19T16:42:53.215Z,15.50
2023-05-19T16:45:19.836Z,15.40
2023-05-19T16:47:46.496Z,15.40
2023-05-19T16:50:13.170Z,15.40
2023-05-19T16:52:39.858Z,15.40
2023-05-19T16:55:07.114Z,15.40
2023-05-19T16:57:33.920Z,15.40
2023-05-19T17:00:00.663Z,15.40
2023-05-19T17:02:27.521Z,15.50
2023-05-19T17:04:54.342Z,15.50
2023-05-19T17:07:21.027Z,15.50
2023-05-19T17:09:47.739Z,15.40
2023-05-19T17:12:14.339Z,15.40
2023-05-19T17:14:41.220Z,15.40
2023-05-19T17:17:07.930Z,15.40
2023-05-19T17:19:34.756Z,15.30
2023-05-19T17:22:01.450Z,15.40
2023-05-19T17:24:28.062Z,15.30
2023-05-19T17:26:54.899Z,15.40
2023-05-19T17:29:21.520Z,15.40
2023-05-19T17:31:48.207Z,15.30
2023-05-19T17:34:15.051Z,15.30
2023-05-19T17:36:41.690Z,15.30
2023-05-19T17:39:08.284Z,15.30
2023-05-19T17:41:34.904Z,15.30
2023-05-19T17:44:01.506Z,15.30
2023-05-19T17:46:28.186Z,15.20
2023-05-19T17:48:54.866Z,15.20
2023-05-19T17:51:21.719Z,15.20
2023-05-19T17:53:48.531Z,15.20
2023-05-19T17:56:15.339Z,15.20
2023-05-19T17:58:42.170Z,15.10
2023-05-19T18:01:09.101Z,15.10
2023-05-19T18:03:36.331Z,15.10
2023-05-19T18:06:03.183Z,15.10
2023-05-19T18:08:31.077Z,15.10
2023-05-19T18:10:58.241Z,15.10
2023-05-19T18:13:24.832Z,15.00
2023-05-19T18:15:51.585Z,15.00
2023-05-19T18:18:18.270Z,15.00
2023-05-19T18:20:44.935Z,14.90
2023-05-19T18:23:12.323Z,14.90
2023-05-19T18:25:38.935Z,14.90
2023-05-19T18:28:05.633Z,14.90
2023-05-19T18:30:32.497Z,14.90
2023-05-19T18:32:59.292Z,14.90
2023-05-19T18:35:25.979Z,14.90
2023-05-19T18:37:56.178Z,14.80
2023-05-19T18:40:22.870Z,14.80
2023-05-19T18:42:50.529Z,14.80
2023-05-19T18:45:17.177Z,14.70
2023-05-19T18:47:43.868Z,14.60
2023-05-19T18:50:10.693Z,14.60
2023-05-19T18:52:37.308Z,14.60
2023-05-19T18:55:04.135Z,14.60
2023-05-19T18:57:30.811Z,14.50
2023-05-19T18:59:57.401Z,14.50
2023-05-19T19:02:24.058Z,14.50
2023-05-19T19:04:50.702Z,14.40
2023-05-19T19:07:17.282Z,14.40
2023-05-19T19:09:43.985Z,14.40
2023-05-19T19:12:10.754Z,14.40
2023-05-19T19:14:37.408Z,14.30
2023-05-19T19:17:04.179Z,14.30
2023-05-19T19:19:30.931Z,14.20
2023-05-19T19:21:57.727Z,14.20
2023-05-19T19:24:25.311Z,14.20
2023-05-19T19:26:51.954Z,14.20
2023-05-19T19:29:18.536Z,14.20
2023-05-19T19:31:45.319Z,14.10
2023-05-19T19:34:11.951Z,14.10
2023-05-19T19:36:38.516Z,14.10
2023-05-19T19:39:05.141Z,14.10
2023-05-19T19:41:31.814Z,14.10
2023-05-19T19:43:58.477Z,14.10
2023-05-19T19:46:25.144Z,14.10
2023-05-19T19:48:51.779Z,14.00
2023-05-19T19:51:18.364Z,14.00
2023-05-19T19:53:45.018Z,14.00
2023-05-19T19:56:11.638Z,14.00
2023-05-19T19:58:38.271Z,13.90
2023-05-19T20:01:04.873Z,14.00
2023-05-19T20:03:31.636Z,13.90
2023-05-19T20:05:58.488Z,13.90
2023-05-19T20:08:25.686Z,13.90
2023-05-19T20:10:52.522Z,13.90
2023-05-19T20:13:19.546Z,13.90
2023-05-19T20:15:46.988Z,13.80
2023-05-19T20:18:13.649Z,13.80
2023-05-19T20:20:40.662Z,13.80
2023-05-19T20:23:07.610Z,13.80
2023-05-19T20:25:37.751Z,13.80
2023-05-19T20:28:04.536Z,13.80
2023-05-19T20:30:31.372Z,13.70
2023-05-19T20:32:58.200Z,13.80
2023-05-19T20:35:24.853Z,13.70
2023-05-19T20:37:51.475Z,13.70
2023-05-19T20:40:18.182Z,13.70
2023-05-19T20:42:44.832Z,13.70
2023-05-19T20:45:11.655Z,13.70
2023-05-19T20:47:38.597Z,13.80
2023-05-19T20:50:05.741Z,13.80
2023-05-19T20:52:32.625Z,13.90
2023-05-19T20:54:59.265Z,13.90
2023-05-19T20:57:27.647Z,13.90
2023-05-19T20:59:55.508Z,13.90
2023-05-19T21:02:22.111Z,13.90
2023-05-19T21:04:48.730Z,14.00
2023-05-19T21:07:15.459Z,14.00
2023-05-19T21:09:42.100Z,14.00
2023-05-19T21:12:08.915Z,14.00
2023-05-19T21:14:35.579Z,13.90
2023-05-19T21:17:02.257Z,13.90
2023-05-19T21:19:28.946Z,13.90
2023-05-19T21:21:55.719Z,13.90
2023-05-19T21:24:22.294Z,13.90
2023-05-19T21:26:48.876Z,13.90
2023-05-19T21:29:15.481Z,13.80
2023-05-19T21:31:42.108Z,13.80
2023-05-19T21:34:08.737Z,13.80
2023-05-19T21:36:35.426Z,13.80
2023-05-19T21:39:02.067Z,13.80
2023-05-19T21:41:28.655Z,13.70
2023-05-19T21:43:55.284Z,13.70
2023-05-19T21:46:21.880Z,13.60
2023-05-19T21:48:48.530Z,13.60
2023-05-19T21:51:15.143Z,13.60
2023-05-19T21:53:41.718Z,13.60
2023-05-19T21:56:08.305Z,13.60
2023-05-19T21:58:34.899Z,13.60
2023-05-19T22:01:01.497Z,13.70
2023-05-19T22:03:28.173Z,13.70
2023-05-19T22:05:56.307Z,13.70
2023-05-19T22:08:22.899Z,13.80
2023-05-19T22:10:50.034Z,13.70
2023-05-19T22:13:16.732Z,13.80
2023-05-19T22:15:43.419Z,13.70
2023-05-19T22:18:10.157Z,13.70
2023-05-19T22:20:36.796Z,13.70
2023-05-19T22:23:03.892Z,13.70
2023-05-19T22:25:30.822Z,13.70
2023-05-19T22:27:57.499Z,13.70
2023-05-19T22:30:24.170Z,13.70
2023-05-19T22:32:50.855Z,13.70
2023-05-19T22:35:17.842Z,13.70
2023-05-19T22:37:44.674Z,13.70
2023-05-19T22:40:11.636Z,13.70
2023-05-19T22:42:38.245Z,13.70
2023-05-19T22:45:05.553Z,13.70
2023-05-19T22:47:32.197Z,13.70
2023-05-19T22:49:58.845Z,13.70
2023-05-19T22:52:25.443Z,13.60
2023-05-19T22:54:52.058Z,13.60
2023-05-19T22:57:18.804Z,13.50
2023-05-19T22:59:45.417Z,13.50
2023-05-19T23:02:12.033Z,13.50
2023-05-19T23:04:38.808Z,13.40
2023-05-19T23:07:05.434Z,13.40
2023-05-19T23:09:32.027Z,13.40
2023-05-19T23:11:58.642Z,13.40
2023-05-19T23:14:25.287Z,13.30
2023-05-19T23:16:52.109Z,13.30
2023-05-19T23:19:19.072Z,13.30
2023-05-19T23:21:45.848Z,13.30
2023-05-19T23:24:12.456Z,13.30
2023-05-19T23:26:39.062Z,13.20
2023-05-19T23:29:05.700Z,13.20
2023-05-19T23:31:32.362Z,13.10
2023-05-19T23:34:01.559Z,13.10
2023-05-19T23:36:28.164Z,13.10
2023-05-19T23:38:54.809Z,13.10
2023-05-19T23:41:21.425Z,13.10
2023-05-19T23:43:48.039Z,13.00
2023-05-19T23:46:14.674Z,13.00
2023-05-19T23:48:41.337Z,13.00
2023-05-19T23:51:07.928Z,13.00
2023-05-19T23:53:34.702Z,13.00
2023-05-19T23:56:01.330Z,12.90
2023-05-19T23:58:27.994Z,12.90
